Portada
METAR-TAF:

METAR-TAF

Aeroports :

Yaoundé, Camerun

latitud: 03-50N, longitud: 011-31E, altitud: 751 m

Observació

L'informe es va fer fa 1 hora i 3 minuts, a les 19:00 UTC
Temperatura 24°C
Humitat 89%
Pressió 1015 hPa
Visibilitat 10 km o més
Escasses núvols a una alçada de 1600 ft

METAR: FKYS 201900Z /////KT 9999 FEW016 24/22 Q1015 NOSIG

Hora: 21:03 (20:03 UTC)

Pronòstic

L'informe es va fer fa 3 hores i 3 minuts, a les 17:00 UTC
Pronòstic vàlid del 20 a les 18 UTC al 21 a les 18 UTC
Vent 3 kt amb direcció variable
Visibilitat 10 km o més
Núvols disperses a una alçada de 1600 ft
Evolucionant progressivament
l' 20 a les 20 UTC al 20 a les 22 UTC
Cel ennuvolat a una alçada de 600 ft
Probabilitat 30%
l' 21 a les 04 UTC al 21 a les 06 UTC
Visibilitat: 2500 m
boirina
Evolucionant progressivament
l' 21 a les 06 UTC al 21 a les 08 UTC
Cel ennuvolat a una alçada de 1600 ft

TAF: FKYS 201700Z 2018/2118 VRB03KT 9999 SCT016 BECMG 2020/2022 BKN006 PROB30 2104/2106 2500 BR BECMG 2106/2108 BKN016

Observacions i pronòstics meteorològics de més de 4000 aeroports (METAR i TAF).

Les estacions disponibles són els punts grocs i vermells al mapa.

Posi el ratolí al punt desitjat per veure el nom de l'estació.

Feu clic per veure les observacions i els pronòstics meteorològics.

Per canviar el mapa: feu clic els botons verds amb una creu de color negre per apropar; al botó verd amb un guió per allunyar la imatge; o en les fletxes verdes per a mapes adjacents.


METAR-TAF: